Time;durP1;ratioP1;P1;durP2;ratioP2;P2;SDS_P1;SDS_P2;PMS_P1;PMS_P2;Temp;Humidity;BMP_temperature;BMP_pressure;BME280_temperature;BME280_humidity;BME280_pressure;Samples;Min_cycle;Max_cycle;Signal;HPM_P1;HPM_P2
2023/10/19 00:00:34;;;;;;;83.40;61.70;;;;;;;1.84;100.00;98355.20;109526;1252;63031;-70
2023/10/19 00:03:20;;;;;;;78.20;60.30;;;;;;;1.83;100.00;98351.96;109484;1252;58190;-70
2023/10/19 00:05:47;;;;;;;76.50;57.80;;;;;;;1.80;100.00;98348.71;109538;1251;58040;-70
2023/10/19 00:08:23;;;;;;;78.40;60.40;;;;;;;1.78;100.00;98346.58;109593;1251;58627;-69
2023/10/19 00:13:53;;;;;;;82.50;61.50;;;;;;;1.74;100.00;98341.45;108881;1258;62731;-70
2023/10/19 00:18:48;;;;;;;78.90;60.00;;;;;;;1.74;100.00;98328.15;108902;1259;58402;-70
2023/10/19 00:21:20;;;;;;;86.40;61.00;;;;;;;1.76;100.00;98326.34;108934;1258;65267;-70
2023/10/19 00:24:04;;;;;;;77.30;59.20;;;;;;;1.78;100.00;98323.26;108910;1258;59901;-69
2023/10/19 00:26:31;;;;;;;81.40;59.60;;;;;;;1.78;100.00;98316.77;108882;1260;64061;-70
2023/10/19 00:28:57;;;;;;;80.50;60.70;;;;;;;1.78;100.00;98321.16;108904;1258;58197;-71
2023/10/19 00:31:28;;;;;;;84.10;62.70;;;;;;;1.77;100.00;98317.88;108896;1259;59008;-70
2023/10/19 00:33:55;;;;;;;83.20;65.20;;;;;;;1.75;100.00;98308.65;108920;1260;66288;-70
2023/10/19 00:36:22;;;;;;;84.40;65.40;;;;;;;1.73;100.00;98303.27;108926;1259;61396;-70
2023/10/19 00:41:22;;;;;;;80.50;62.00;;;;;;;1.87;100.00;98280.66;108787;1258;58259;-70
2023/10/19 00:43:49;;;;;;;82.50;62.30;;;;;;;1.99;100.00;98277.89;108923;1259;58293;-70
2023/10/19 00:48:45;;;;;;;89.40;63.40;;;;;;;2.10;100.00;98269.66;108948;1253;58775;-69
2023/10/19 00:51:27;;;;;;;80.60;60.00;;;;;;;2.12;100.00;98265.34;109499;1252;63865;-70
2023/10/19 00:53:56;;;;;;;82.10;59.40;;;;;;;2.14;100.00;98263.19;109493;1252;59118;-70
2023/10/19 00:56:26;;;;;;;79.50;60.60;;;;;;;2.16;100.00;98262.05;109529;1252;58401;-70
2023/10/19 00:58:59;;;;;;;83.70;63.00;;;;;;;2.15;100.00;98259.28;109524;1251;66313;-70
2023/10/19 01:01:29;;;;;;;85.00;63.80;;;;;;;2.12;100.00;98257.98;109331;1252;61182;-70
2023/10/19 01:03:58;;;;;;;88.20;65.30;;;;;;;2.09;100.00;98256.58;109521;1252;64083;-70
2023/10/19 01:06:25;;;;;;;78.50;60.00;;;;;;;2.06;100.00;98253.20;109508;1253;58675;-70
2023/10/19 01:08:52;;;;;;;81.80;61.40;;;;;;;2.04;100.00;98250.48;109495;1256;58179;-70
2023/10/19 01:11:21;;;;;;;82.30;59.80;;;;;;;2.02;100.00;98251.09;109497;1254;65105;-70
2023/10/19 01:13:48;;;;;;;87.00;62.70;;;;;;;2.03;100.00;98243.70;109544;1252;59969;-70
2023/10/19 01:16:21;;;;;;;81.10;57.80;;;;;;;2.02;100.00;98235.16;108605;1252;1002208;-70
2023/10/19 01:18:51;;;;;;;78.30;57.40;;;;;;;2.01;100.00;98233.08;109531;1253;58180;-70
2023/10/19 01:21:21;;;;;;;77.70;56.30;;;;;;;2.00;100.00;98232.44;109403;1252;58290;-70
2023/10/19 01:23:48;;;;;;;77.30;57.80;;;;;;;1.96;100.00;98234.73;109517;1253;66395;-70
2023/10/19 01:26:21;;;;;;;76.60;57.70;;;;;;;1.91;100.00;98228.44;109538;1253;60306;-70
2023/10/19 01:28:48;;;;;;;84.20;60.90;;;;;;;1.89;100.00;98221.88;109505;1255;64065;-69
2023/10/19 01:31:22;;;;;;;78.10;58.80;;;;;;;1.90;100.00;98219.39;109480;1252;58201;-70
2023/10/19 01:33:49;;;;;;;73.40;55.30;;;;;;;1.92;100.00;98216.14;109539;1252;58152;-70
2023/10/19 01:36:24;;;;;;;85.20;60.00;;;;;;;1.93;100.00;98209.63;109403;1251;63888;-70
2023/10/19 01:38:54;;;;;;;81.80;57.80;;;;;;;1.98;100.00;98196.96;109547;1253;60187;-70
2023/10/19 01:41:24;;;;;;;78.50;59.80;;;;;;;2.05;100.00;98195.60;109490;1252;71145;-70
2023/10/19 01:43:55;;;;;;;80.90;59.40;;;;;;;2.08;100.00;98189.16;109509;1253;58205;-70
2023/10/19 01:46:24;;;;;;;75.50;57.60;;;;;;;2.10;100.00;98182.41;109520;1253;58310;-70
2023/10/19 01:48:55;;;;;;;78.00;60.20;;;;;;;2.10;100.00;98178.19;109523;1253;63752;-70
2023/10/19 01:51:26;;;;;;;78.80;56.00;;;;;;;2.11;100.00;98175.18;109524;1252;60164;-70
2023/10/19 01:53:55;;;;;;;80.40;58.30;;;;;;;2.09;100.00;98177.52;109490;1252;62903;-70
2023/10/19 01:56:22;;;;;;;78.50;56.20;;;;;;;2.08;100.00;98172.49;109520;1251;58279;-69
2023/10/19 01:58:51;;;;;;;81.30;59.90;;;;;;;2.06;100.00;98166.31;109502;1254;58259;-70
2023/10/19 02:01:44;;;;;;;79.60;58.80;;;;;;;2.03;100.00;98160.29;109412;1254;65262;-70
2023/10/19 02:04:08;;;;;;;83.20;62.20;;;;;;;2.00;100.00;98162.17;109406;1252;60204;-70
2023/10/19 02:06:40;;;;;;;86.90;60.30;;;;;;;1.98;100.00;98160.86;109522;1254;64478;-70
2023/10/19 02:09:26;;;;;;;80.30;59.60;;;;;;;1.98;100.00;98157.39;109309;1253;58163;-69
2023/10/19 02:11:57;;;;;;;90.80;71.90;;;;;;;1.96;100.00;98151.48;109513;1252;58201;-70
2023/10/19 02:14:25;;;;;;;79.40;62.90;;;;;;;1.95;100.00;98150.14;109395;1252;64302;-69
2023/10/19 02:16:56;;;;;;;77.90;63.10;;;;;;;1.95;100.00;98153.81;109554;1252;59925;-70
2023/10/19 02:19:24;;;;;;;87.80;59.40;;;;;;;1.96;100.00;98146.41;109563;1253;63869;-70
2023/10/19 02:21:53;;;;;;;76.40;56.20;;;;;;;2.00;100.00;98138.88;109560;1253;58129;-70
2023/10/19 02:24:20;;;;;;;77.50;58.10;;;;;;;2.05;100.00;98137.10;109527;1253;61453;-70
2023/10/19 02:26:51;;;;;;;79.00;57.20;;;;;;;2.09;100.00;98136.56;109528;1254;58312;-69
2023/10/19 02:29:18;;;;;;;85.30;55.10;;;;;;;2.13;100.00;98137.77;109549;1254;59095;-70
2023/10/19 02:31:45;;;;;;;75.80;55.20;;;;;;;2.20;100.00;98139.39;109564;1253;64062;-69
2023/10/19 02:34:15;;;;;;;76.10;56.60;;;;;;;2.27;100.00;98127.15;109321;1253;58270;-70
2023/10/19 02:36:43;;;;;;;79.60;59.00;;;;;;;2.33;100.00;98113.70;109419;1253;58245;-70
2023/10/19 02:39:13;;;;;;;82.80;61.80;;;;;;;2.40;100.00;98104.77;109215;1254;66201;-70
2023/10/19 02:41:43;;;;;;;87.40;62.20;;;;;;;2.47;100.00;98101.66;109039;1254;60570;-70
2023/10/19 02:46:50;;;;;;;71.80;54.60;;;;;;;2.59;100.00;98094.03;109096;1258;58957;-70
2023/10/19 02:49:18;;;;;;;77.70;54.60;;;;;;;2.64;100.00;98084.83;109146;1255;59172;-70
2023/10/19 02:51:45;;;;;;;74.80;55.00;;;;;;;2.70;100.00;98079.13;109181;1256;66131;-70
2023/10/19 02:54:20;;;;;;;74.10;55.80;;;;;;;2.74;100.00;98074.52;109178;1257;59913;-70
2023/10/19 02:56:48;;;;;;;72.90;52.50;;;;;;;2.79;100.00;98067.23;109043;1257;62680;-70
2023/10/19 02:59:16;;;;;;;73.60;55.50;;;;;;;2.83;100.00;98066.66;109111;1256;59487;-70
2023/10/19 03:01:45;;;;;;;69.60;53.00;;;;;;;2.87;100.00;98065.44;109171;1256;59157;-70
2023/10/19 03:04:12;;;;;;;66.30;53.00;;;;;;;2.91;100.00;98069.63;109101;1256;66047;-70
2023/10/19 03:06:40;;;;;;;69.20;51.10;;;;;;;2.95;100.00;98066.26;109273;1257;60301;-70
2023/10/19 03:09:28;;;;;;;64.90;50.00;;;;;;;2.99;100.00;98060.78;109158;1256;62536;-70
2023/10/19 03:11:59;;;;;;;66.80;49.50;;;;;;;3.03;100.00;98055.85;109169;1256;59438;-70
2023/10/19 03:14:27;;;;;;;66.40;49.70;;;;;;;3.07;100.00;98053.17;109295;1254;59115;-70
2023/10/19 03:16:57;;;;;;;66.40;48.70;;;;;;;3.10;100.00;98048.98;109063;1257;67217;-70
2023/10/19 03:19:26;;;;;;;61.30;48.60;;;;;;;3.13;100.00;98037.23;109177;1255;60076;-70
2023/10/19 03:22:00;;;;;;;64.00;47.10;;;;;;;3.17;100.00;98028.30;109309;1252;62673;-70
2023/10/19 03:24:36;;;;;;;58.20;45.30;;;;;;;3.19;100.00;98023.45;109436;1254;58927;-70
2023/10/19 03:27:13;;;;;;;56.70;43.10;;;;;;;3.22;100.00;98019.94;109298;1252;59167;-70
2023/10/19 03:29:40;;;;;;;57.90;45.60;;;;;;;3.24;100.00;98014.39;109274;1254;67260;-70
2023/10/19 03:32:07;;;;;;;61.30;47.00;;;;;;;3.27;100.00;98009.65;109474;1252;60210;-70
2023/10/19 03:34:35;;;;;;;58.40;43.70;;;;;;;3.31;100.00;98011.39;109494;1254;64365;-70
2023/10/19 03:37:05;;;;;;;59.30;43.50;;;;;;;3.35;100.00;98008.75;109504;1254;58975;-70
2023/10/19 03:39:37;;;;;;;57.90;43.90;;;;;;;3.37;100.00;98007.04;109549;1253;58893;-70
2023/10/19 03:42:06;;;;;;;54.40;42.80;;;;;;;3.39;100.00;98004.98;109219;1254;65794;-69
2023/10/19 03:47:38;;;;;;;63.20;43.70;;;;;;;3.43;100.00;98001.59;109511;1254;62932;-69
2023/10/19 03:50:13;;;;;;;58.00;44.90;;;;;;;3.47;100.00;98003.86;109440;1252;58954;-69
2023/10/19 03:52:40;;;;;;;55.20;42.30;;;;;;;3.50;100.00;98006.49;109544;1252;58986;-69
2023/10/19 03:55:23;;;;;;;56.30;44.60;;;;;;;3.53;100.00;98000.00;109551;1254;65673;-69
2023/10/19 03:57:54;;;;;;;55.70;43.30;;;;;;;3.57;100.00;97999.45;109456;1254;59940;-69
2023/10/19 04:00:28;;;;;;;54.80;44.30;;;;;;;3.60;100.00;97996.13;109492;1252;73227;-69
2023/10/19 04:02:55;;;;;;;61.30;45.20;;;;;;;3.63;100.00;97988.96;109472;1254;59140;-69
2023/10/19 04:05:26;;;;;;;55.00;42.80;;;;;;;3.65;100.00;97990.23;109522;1252;58856;-69
2023/10/19 04:07:55;;;;;;;56.60;44.50;;;;;;;3.68;100.00;97985.52;109520;1253;65883;-69
2023/10/19 04:13:01;;;;;;;55.60;44.10;;;;;;;3.73;100.00;97979.77;109529;1254;63746;-76
2023/10/19 04:15:33;;;;;;;53.30;42.90;;;;;;;3.76;100.00;97976.80;109456;1253;59039;-70
2023/10/19 04:18:00;;;;;;;55.00;43.40;;;;;;;3.81;100.00;97971.60;109561;1253;58973;-68
2023/10/19 04:20:29;;;;;;;53.30;40.60;;;;;;;3.83;100.00;97962.52;109319;1253;65032;-69
2023/10/19 04:23:10;;;;;;;57.90;41.00;;;;;;;3.84;100.00;97948.21;109473;1253;58986;-68
2023/10/19 04:25:37;;;;;;;56.80;40.00;;;;;;;3.85;100.00;97938.72;109522;1254;65059;-68
2023/10/19 04:28:04;;;;;;;47.30;38.30;;;;;;;3.85;100.00;97928.67;109484;1254;59399;-68
2023/10/19 04:30:33;;;;;;;54.30;41.70;;;;;;;3.86;100.00;97924.25;109543;1254;58980;-68
2023/10/19 04:33:01;;;;;;;53.40;41.40;;;;;;;3.87;100.00;97926.13;108750;1254;1002823;-68
2023/10/19 04:35:32;;;;;;;55.20;40.90;;;;;;;3.88;100.00;97924.97;109500;1253;61033;-68
2023/10/19 04:37:59;;;;;;;56.50;41.50;;;;;;;3.91;100.00;97919.38;109478;1254;64127;-68
2023/10/19 04:40:26;;;;;;;56.10;44.40;;;;;;;3.93;100.00;97910.98;109527;1254;58989;-69
2023/10/19 04:42:54;;;;;;;54.00;43.00;;;;;;;3.95;100.00;97907.69;109514;1252;58867;-68
2023/10/19 04:45:20;;;;;;;57.30;42.20;;;;;;;3.98;100.00;97903.33;109490;1253;64797;-68
2023/10/19 04:47:54;;;;;;;58.60;44.30;;;;;;;4.00;100.00;97902.34;109470;1254;59235;-68
2023/10/19 04:50:21;;;;;;;54.20;44.50;;;;;;;4.02;100.00;97903.80;109458;1253;65269;-68
2023/10/19 04:52:47;;;;;;;52.50;44.00;;;;;;;4.04;100.00;97896.14;109524;1253;58951;-69
2023/10/19 04:55:14;;;;;;;59.20;45.60;;;;;;;4.05;100.00;97893.98;109530;1252;58866;-69
2023/10/19 04:57:41;;;;;;;64.50;52.20;;;;;;;4.05;100.00;97891.52;109498;1254;66027;-68
2023/10/19 05:00:13;;;;;;;62.90;50.30;;;;;;;4.06;100.00;97881.27;109490;1254;58936;-68
2023/10/19 05:02:39;;;;;;;65.10;51.40;;;;;;;4.07;100.00;97887.56;109460;1254;62477;-68
2023/10/19 05:05:06;;;;;;;56.00;45.80;;;;;;;4.07;100.00;97892.11;109520;1252;59282;-68
2023/10/19 05:07:33;;;;;;;57.30;45.80;;;;;;;4.07;100.00;97892.98;109538;1254;59535;-68
2023/10/19 05:10:00;;;;;;;61.80;50.10;;;;;;;4.07;100.00;97896.45;109546;1254;64590;-68
2023/10/19 05:12:26;;;;;;;62.20;48.10;;;;;;;4.09;100.00;97897.77;109499;1255;59032;-69
2023/10/19 05:14:52;;;;;;;54.80;43.90;;;;;;;4.10;100.00;97888.23;109502;1254;65258;-69
2023/10/19 05:17:21;;;;;;;51.80;41.00;;;;;;;4.10;100.00;97886.16;109481;1254;58952;-69
2023/10/19 05:19:47;;;;;;;54.00;40.80;;;;;;;4.09;100.00;97879.70;109540;1254;59010;-69
2023/10/19 05:22:13;;;;;;;51.80;39.90;;;;;;;4.10;100.00;97878.77;109522;1252;59046;-69
2023/10/19 05:24:40;;;;;;;54.80;41.70;;;;;;;4.11;100.00;97877.27;109483;1254;59026;-69
2023/10/19 05:27:09;;;;;;;52.50;40.60;;;;;;;4.14;100.00;97878.00;109474;1252;59003;-69
2023/10/19 05:29:36;;;;;;;50.70;38.10;;;;;;;4.16;100.00;97873.83;109508;1253;59255;-68
2023/10/19 05:32:03;;;;;;;51.10;38.50;;;;;;;4.17;100.00;97874.29;109479;1251;59009;-69
2023/10/19 05:34:32;;;;;;;48.80;38.80;;;;;;;4.17;100.00;97871.95;109487;1255;65741;-68
2023/10/19 05:37:01;;;;;;;49.80;37.90;;;;;;;4.20;100.00;97868.64;109457;1254;61287;-69
2023/10/19 05:39:30;;;;;;;51.50;40.40;;;;;;;4.23;100.00;97866.92;109498;1254;64116;-68
2023/10/19 05:42:00;;;;;;;48.10;35.90;;;;;;;4.24;100.00;97868.44;109522;1254;58951;-68
2023/10/19 05:44:30;;;;;;;44.10;36.90;;;;;;;4.26;100.00;97863.20;109570;1253;58874;-69
2023/10/19 05:46:58;;;;;;;;;;;;;;;4.27;100.00;97867.39;109549;1254;65781;-68
2023/10/19 05:49:24;;;;;;;52.20;36.60;;;;;;;4.29;100.00;97866.20;109490;1253;58990;-68
2023/10/19 05:51:51;;;;;;;48.70;37.40;;;;;;;4.32;100.00;97864.60;109499;1254;64182;-68
2023/10/19 05:54:18;;;;;;;54.00;41.30;;;;;;;4.37;100.00;97868.89;109443;1255;59046;-69
2023/10/19 05:56:45;;;;;;;45.50;34.90;;;;;;;4.40;100.00;97862.74;109502;1254;59150;-69
2023/10/19 05:59:13;;;;;;;46.50;36.30;;;;;;;4.41;100.00;97858.44;109222;1254;65803;-69
2023/10/19 06:01:41;;;;;;;46.80;36.60;;;;;;;4.44;100.00;97857.77;109498;1256;59049;-68
2023/10/19 06:04:08;;;;;;;46.90;37.10;;;;;;;4.46;100.00;97859.72;109494;1254;62493;-69
2023/10/19 06:06:36;;;;;;;48.50;37.40;;;;;;;4.49;100.00;97862.01;109486;1252;58971;-69
2023/10/19 06:09:02;;;;;;;48.50;37.60;;;;;;;4.51;100.00;97858.88;109458;1254;59350;-69
2023/10/19 06:11:32;;;;;;;45.60;35.90;;;;;;;4.54;100.00;97857.44;109500;1254;65979;-69
2023/10/19 06:13:59;;;;;;;47.60;36.10;;;;;;;4.60;100.00;97846.58;109478;1253;59926;-69
2023/10/19 06:16:27;;;;;;;48.90;35.90;;;;;;;4.66;100.00;97843.73;109485;1252;64138;-68
2023/10/19 06:18:54;;;;;;;50.30;38.70;;;;;;;4.73;100.00;97841.52;109487;1252;59050;-68
2023/10/19 06:21:21;;;;;;;49.30;35.90;;;;;;;4.81;100.00;97835.20;109547;1253;59321;-68
2023/10/19 06:23:47;;;;;;;49.60;37.20;;;;;;;4.89;100.00;97836.52;109504;1253;66865;-68
2023/10/19 06:26:14;;;;;;;41.70;33.70;;;;;;;4.99;100.00;97832.20;109501;1254;58990;-68
2023/10/19 06:28:41;;;;;;;44.80;34.70;;;;;;;5.07;100.00;97832.41;109502;1253;65087;-68
2023/10/19 06:31:08;;;;;;;37.50;32.10;;;;;;;5.14;100.00;97829.30;109478;1253;59059;-68
2023/10/19 06:33:35;;;;;;;45.90;36.00;;;;;;;5.22;100.00;97829.98;109467;1254;58902;-69
2023/10/19 06:36:03;;;;;;;39.00;30.40;;;;;;;5.29;100.00;97825.17;109517;1253;67232;-69
2023/10/19 06:38:31;;;;;;;41.00;31.70;;;;;;;5.33;100.00;97825.08;109493;1256;68716;-68
2023/10/19 06:40:58;;;;;;;37.00;29.90;;;;;;;5.33;100.00;97820.89;109476;1254;65192;-69
2023/10/19 06:43:28;;;;;;;36.60;29.40;;;;;;;5.31;100.00;97822.07;109464;1254;59071;-69
2023/10/19 06:45:55;;;;;;;36.90;28.20;;;;;;;5.32;100.00;97814.27;109447;1254;61659;-69
2023/10/19 06:48:22;;;;;;;38.10;30.10;;;;;;;5.35;100.00;97812.65;109526;1253;64524;-69
2023/10/19 06:50:48;;;;;;;32.70;25.90;;;;;;;5.40;100.00;97808.30;109497;1254;59039;-69
2023/10/19 06:53:15;;;;;;;39.30;29.30;;;;;;;5.44;100.00;97804.80;109502;1254;59016;-69
2023/10/19 06:55:42;;;;;;;34.50;27.90;;;;;;;5.47;100.00;97797.73;109490;1253;58953;-69
2023/10/19 06:58:12;;;;;;;40.90;31.30;;;;;;;5.52;100.00;97794.13;109531;1254;59190;-69
2023/10/19 07:00:42;;;;;;;34.10;26.60;;;;;;;5.56;100.00;97793.67;109506;1256;64832;-69
2023/10/19 07:03:08;;;;;;;29.60;24.30;;;;;;;5.60;100.00;97795.84;109464;1254;61384;-69
2023/10/19 07:05:35;;;;;;;29.70;23.20;;;;;;;5.66;100.00;97782.77;109526;1254;65248;-69
2023/10/19 07:08:03;;;;;;;27.90;23.30;;;;;;;5.75;100.00;97784.84;109515;1254;59249;-69
2023/10/19 07:10:29;;;;;;;38.40;28.40;;;;;;;5.89;100.00;97776.67;109495;1253;59027;-69
2023/10/19 07:12:57;;;;;;;31.30;24.60;;;;;;;6.06;100.00;97772.21;109517;1254;64990;-69
2023/10/19 07:15:25;;;;;;;29.50;23.90;;;;;;;6.21;100.00;97772.05;109503;1252;60231;-69
2023/10/19 07:17:54;;;;;;;31.90;24.90;;;;;;;6.34;100.00;97766.52;109323;1254;63820;-69
2023/10/19 07:20:25;;;;;;;33.30;26.10;;;;;;;6.53;100.00;97755.86;109465;1252;59304;-69
2023/10/19 07:22:56;;;;;;;31.60;25.80;;;;;;;6.76;100.00;97747.54;109536;1254;59193;-69
2023/10/19 07:25:25;;;;;;;34.20;27.00;;;;;;;6.99;100.00;97737.58;109532;1251;64971;-69
2023/10/19 07:27:52;;;;;;;51.40;34.40;;;;;;;7.22;100.00;97740.10;109510;1254;60922;-69
2023/10/19 07:30:21;;;;;;;50.70;33.80;;;;;;;7.41;100.00;97742.63;109530;1253;65472;-69
2023/10/19 07:32:54;;;;;;;32.90;28.80;;;;;;;7.57;100.00;97734.95;109503;1252;58949;-69
2023/10/19 07:35:22;;;;;;;34.20;27.00;;;;;;;7.67;100.00;97735.59;109483;1253;59053;-69
2023/10/19 07:37:50;;;;;;;29.30;24.80;;;;;;;7.74;100.00;97734.34;109490;1253;64671;-69
2023/10/19 07:40:17;;;;;;;33.80;27.50;;;;;;;7.78;100.00;97735.80;109359;1253;59332;-70
2023/10/19 07:42:49;;;;;;;33.30;26.20;;;;;;;7.81;100.00;97726.39;109495;1253;62827;-67
2023/10/19 07:45:16;;;;;;;31.40;26.00;;;;;;;7.84;100.00;97723.51;109502;1253;59056;-67
2023/10/19 07:47:44;;;;;;;30.20;26.40;;;;;;;7.90;100.00;97719.15;109508;1251;58962;-69
2023/10/19 07:50:15;;;;;;;31.30;25.50;;;;;;;7.90;100.00;97725.52;109565;1251;64861;-69
2023/10/19 07:52:48;;;;;;;28.90;24.90;;;;;;;7.91;100.00;97727.20;109429;1251;60123;-69
2023/10/19 07:55:16;;;;;;;32.00;25.80;;;;;;;7.88;100.00;97722.44;109554;1251;63837;-68
2023/10/19 07:57:44;;;;;;;29.40;24.50;;;;;;;7.87;100.00;97709.98;109543;1251;59013;-69
2023/10/19 08:00:14;;;;;;;32.60;24.90;;;;;;;7.87;100.00;97709.27;109599;1251;59072;-69
2023/10/19 08:02:51;;;;;;;30.30;25.30;;;;;;;7.90;100.00;97711.89;109428;1251;64562;-68
2023/10/19 08:05:21;;;;;;;26.50;23.30;;;;;;;8.06;100.00;97705.18;109560;1250;59071;-69
2023/10/19 08:07:47;;;;;;;25.80;23.00;;;;;;;8.18;100.00;97694.68;109544;1250;62836;-68
2023/10/19 08:10:17;;;;;;;26.70;22.90;;;;;;;8.30;100.00;97689.52;109590;1250;58946;-69
2023/10/19 08:12:47;;;;;;;28.40;23.40;;;;;;;8.39;100.00;97694.15;109587;1251;59129;-68
2023/10/19 08:15:15;;;;;;;;;;;;;;;8.47;100.00;97699.88;109580;1250;65058;-68
2023/10/19 08:17:43;;;;;;;28.90;24.50;;;;;;;8.54;100.00;97699.50;109506;1251;59813;-68
2023/10/19 08:20:30;;;;;;;25.90;22.50;;;;;;;8.61;100.00;97703.27;109541;1250;64155;-68
2023/10/19 08:22:58;;;;;;;24.70;21.70;;;;;;;8.56;100.00;97700.09;109556;1251;59247;-69
2023/10/19 08:25:28;;;;;;;24.10;21.00;;;;;;;8.51;100.00;97695.65;109537;1251;58899;-69
2023/10/19 08:27:57;;;;;;;27.50;21.70;;;;;;;8.50;100.00;97696.98;109566;1250;64637;-68
2023/10/19 08:30:24;;;;;;;23.60;20.80;;;;;;;8.53;100.00;97692.34;109518;1250;60102;-69
2023/10/19 08:32:53;;;;;;;23.20;20.70;;;;;;;8.61;100.00;97691.92;109553;1251;64127;-69
2023/10/19 08:35:24;;;;;;;23.50;20.80;;;;;;;8.64;100.00;97688.06;109578;1251;59150;-69
2023/10/19 08:37:52;;;;;;;23.80;20.20;;;;;;;8.69;100.00;97676.86;109561;1250;58865;-69
2023/10/19 08:40:19;;;;;;;23.00;19.90;;;;;;;8.74;100.00;97673.46;109536;1250;74080;-68
2023/10/19 08:42:46;;;;;;;25.60;22.90;;;;;;;8.75;100.00;97680.10;109501;1251;60092;-69
2023/10/19 08:45:14;;;;;;;26.30;23.60;;;;;;;8.76;100.00;97678.98;109535;1250;62697;-69
2023/10/19 08:47:47;;;;;;;26.00;21.90;;;;;;;8.77;100.00;97675.12;109407;1251;59189;-69
2023/10/19 08:50:14;;;;;;;28.40;22.20;;;;;;;8.76;100.00;97680.42;109536;1251;59011;-69
2023/10/19 08:52:42;;;;;;;34.10;28.10;;;;;;;8.71;100.00;97675.09;109556;1251;64557;-68
2023/10/19 08:55:12;;;;;;;31.90;27.80;;;;;;;8.75;100.00;97669.66;109591;1250;59015;-68
2023/10/19 08:57:39;;;;;;;28.40;25.20;;;;;;;8.81;100.00;97672.44;109608;1250;64010;-68
2023/10/19 09:00:07;;;;;;;28.10;23.00;;;;;;;8.84;100.00;97671.61;109511;1250;58975;-68
2023/10/19 09:02:34;;;;;;;24.70;21.40;;;;;;;8.83;100.00;97664.48;109590;1251;59053;-68
2023/10/19 09:05:07;;;;;;;28.50;21.20;;;;;;;8.77;100.00;97664.55;109551;1251;59298;-68
2023/10/19 09:07:34;;;;;;;26.20;21.80;;;;;;;8.70;100.00;97660.90;109414;1250;219793;-68
2023/10/19 09:10:05;;;;;;;28.40;22.80;;;;;;;8.65;100.00;97658.96;109623;1250;64995;-69
2023/10/19 09:12:32;;;;;;;25.30;22.20;;;;;;;8.60;100.00;97660.13;109545;1250;58986;-68
2023/10/19 09:14:58;;;;;;;28.80;22.60;;;;;;;8.51;100.00;97657.78;109602;1250;58991;-68
2023/10/19 09:17:29;;;;;;;28.00;23.50;;;;;;;8.48;100.00;97656.45;109561;1250;67313;-68
2023/10/19 09:19:56;;;;;;;29.70;22.90;;;;;;;8.49;100.00;97655.46;109603;1250;61318;-68
2023/10/19 09:22:22;;;;;;;29.90;23.90;;;;;;;8.51;100.00;97656.07;109471;1251;63741;-68
2023/10/19 09:24:49;;;;;;;26.10;23.30;;;;;;;8.51;100.00;97651.26;109547;1251;58974;-68
2023/10/19 09:27:20;;;;;;;27.90;23.10;;;;;;;8.52;100.00;97652.61;109555;1251;58895;-69
2023/10/19 09:29:52;;;;;;;29.60;23.40;;;;;;;8.56;100.00;97653.54;109557;1250;65966;-69
2023/10/19 09:32:19;;;;;;;29.10;22.20;;;;;;;8.58;100.00;97647.89;109597;1250;58982;-69
2023/10/19 09:34:47;;;;;;;27.90;22.00;;;;;;;8.61;100.00;97645.67;109569;1250;62493;-68
2023/10/19 09:37:16;;;;;;;24.60;20.30;;;;;;;8.63;100.00;97643.23;109528;1251;59004;-66
2023/10/19 09:39:43;;;;;;;31.70;27.60;;;;;;;8.64;100.00;97635.89;109555;1250;60291;-66
2023/10/19 09:42:10;;;;;;;32.30;28.90;;;;;;;8.71;100.00;97627.52;109562;1250;67206;-66
2023/10/19 09:44:45;;;;;;;34.40;30.70;;;;;;;8.83;100.00;97622.96;109581;1250;59112;-66
2023/10/19 09:47:20;;;;;;;33.10;27.60;;;;;;;8.97;100.00;97615.45;109574;1250;64117;-66
2023/10/19 09:49:49;;;;;;;30.80;26.90;;;;;;;9.11;100.00;97613.61;109642;1250;59003;-66
2023/10/19 09:52:17;;;;;;;31.00;25.90;;;;;;;9.23;100.00;97611.20;109611;1250;59092;-66
2023/10/19 09:54:59;;;;;;;29.30;24.80;;;;;;;9.35;100.00;97607.65;109614;1250;64791;-66
2023/10/19 09:57:36;;;;;;;31.80;27.00;;;;;;;9.44;100.00;97610.79;109622;1250;59000;-66
2023/10/19 10:00:11;;;;;;;31.40;24.50;;;;;;;9.53;100.00;97614.38;109584;1250;64151;-66
2023/10/19 10:02:47;;;;;;;33.20;24.50;;;;;;;9.61;100.00;97617.19;109499;1252;58984;-66
2023/10/19 10:05:41;;;;;;;36.70;26.20;;;;;;;9.71;100.00;97614.40;109576;1250;59330;-66
2023/10/19 10:08:17;;;;;;;31.50;24.20;;;;;;;9.82;100.00;97616.29;109550;1253;67360;-66
2023/10/19 10:10:45;;;;;;;24.50;21.50;;;;;;;9.94;100.00;97611.73;109556;1252;59811;-66
2023/10/19 10:13:23;;;;;;;25.30;21.60;;;;;;;9.97;100.00;97604.20;109508;1253;65249;-66
2023/10/19 10:15:54;;;;;;;30.70;22.30;;;;;;;9.97;100.00;97595.30;109500;1251;59748;-66
2023/10/19 10:18:24;;;;;;;28.60;22.20;;;;;;;10.01;100.00;97588.02;109513;1251;59012;-66
2023/10/19 10:21:20;;;;;;;28.30;22.60;;;;;;;10.06;100.00;97586.84;109499;1253;66112;-66
2023/10/19 10:24:00;;;;;;;32.70;24.20;;;;;;;10.08;100.00;97581.89;109458;1253;59417;-66
2023/10/19 10:26:30;;;;;;;;;;;;;;;10.15;100.00;97580.08;109486;1253;64131;-66
2023/10/19 10:29:23;;;;;;;28.10;23.20;;;;;;;10.23;100.00;97581.50;109463;1253;58948;-67
2023/10/19 10:31:50;;;;;;;29.50;24.50;;;;;;;10.37;100.00;97575.14;109507;1253;58881;-66
2023/10/19 10:34:40;;;;;;;27.60;24.10;;;;;;;10.46;100.00;97569.52;109522;1253;67299;-65
2023/10/19 10:37:09;;;;;;;30.30;22.70;;;;;;;10.50;100.00;97564.94;109482;1253;60025;-66
2023/10/19 10:39:40;;;;;;;31.30;27.60;;;;;;;10.56;100.00;97560.64;109449;1253;64739;-66
2023/10/19 10:42:08;;;;;;;36.60;28.40;;;;;;;10.66;100.00;97556.23;109483;1253;59104;-66
2023/10/19 10:44:38;;;;;;;47.90;42.50;;;;;;;10.74;100.00;97547.11;109533;1252;58985;-66
2023/10/19 10:47:25;;;;;;;;;;;;;;;10.79;100.00;97534.66;109497;1253;64895;-66
2023/10/19 10:49:54;;;;;;;27.60;24.50;;;;;;;10.74;100.00;97530.60;109521;1253;59297;-65
2023/10/19 10:52:29;;;;;;;27.70;23.70;;;;;;;10.70;100.00;97527.65;109519;1254;64033;-65
2023/10/19 10:54:56;;;;;;;28.80;25.10;;;;;;;10.65;100.00;97520.63;109348;1252;58941;-66
2023/10/19 10:57:24;;;;;;;32.10;26.40;;;;;;;10.66;100.00;97512.48;109560;1252;59244;-66
2023/10/19 11:00:14;;;;;;;30.60;27.20;;;;;;;10.74;100.00;97507.02;109487;1253;66880;-66
2023/10/19 11:02:43;;;;;;;32.00;28.50;;;;;;;10.80;100.00;97494.73;109495;1252;60422;-66
2023/10/19 11:05:14;;;;;;;31.90;27.90;;;;;;;10.88;100.00;97485.45;109487;1251;63839;-66
2023/10/19 11:08:01;;;;;;;32.80;26.30;;;;;;;10.91;100.00;97483.70;109457;1253;58958;-66
2023/10/19 11:10:30;;;;;;;30.70;27.20;;;;;;;10.93;100.00;97474.71;109525;1250;58990;-67
2023/10/19 11:13:05;;;;;;;30.90;26.00;;;;;;;10.97;100.00;97466.84;109500;1249;66539;-67
2023/10/19 11:15:34;;;;;;;31.60;25.60;;;;;;;10.96;100.00;97462.80;109527;1251;59245;-68
2023/10/19 11:18:01;;;;;;;32.20;27.40;;;;;;;10.93;100.00;97459.08;109605;1250;62868;-74
2023/10/19 11:20:28;;;;;;;43.50;32.60;;;;;;;10.91;100.00;97458.31;109479;1251;58975;-66
2023/10/19 11:22:56;;;;;;;34.90;27.30;;;;;;;10.90;100.00;97456.13;109405;1252;59149;-66
2023/10/19 11:25:31;;;;;;;33.30;27.20;;;;;;;10.89;100.00;97457.05;109555;1251;74670;-65
2023/10/19 11:28:01;;;;;;;30.50;25.40;;;;;;;10.90;100.00;97450.07;109609;1252;60250;-66
2023/10/19 11:30:29;;;;;;;32.70;26.30;;;;;;;10.88;100.00;97438.70;109362;1251;62653;-66
2023/10/19 11:33:02;;;;;;;33.50;26.40;;;;;;;10.87;100.00;97435.60;109582;1251;59093;-66
2023/10/19 11:35:30;;;;;;;33.30;25.40;;;;;;;10.91;100.00;97438.79;109376;1251;59166;-66
2023/10/19 11:37:59;;;;;;;28.60;25.00;;;;;;;10.92;100.00;97437.05;109625;1250;65714;-66
2023/10/19 11:40:27;;;;;;;30.10;24.00;;;;;;;10.86;100.00;97434.45;109615;1250;60226;-66